Portada
METAR-TAF:

METAR-TAF

Aeroports :

Oskemen, Kazakhstan

latitud: 50-02-10N, longitud: 082-29-39E, altitud: 286 m

Observació

L'informe es va fer fa 17 minuts, a les 04:00 UTC
Vent 2 kt del Nord
Temperatura 2°C
Humitat 64%
Pressió 1022 hPa
Visibilitat 10 km o més

METAR: UASK 230400Z 01001MPS 9999 NSC 02/M04 Q1022 R12/090060 NOSIG RMK QFE741/0988

Hora: 10:17 (04:17 UTC)

Pronòstic

L'informe es va fer fa 2 hores i 14 minuts, a les 02:03 UTC
Pronòstic vàlid del 23 a les 03 UTC al 23 a les 12 UTC
Vent 8 kt del Est
Visibilitat 10 km o més
Temporalment
l' 23 a les 03 UTC al 23 a les 06 UTC
Vent 2 kt amb direcció variable
Visibilitat: 3100 m
Escasses núvols a una alçada de 600 ft
boirina

TAF: UASK 230203Z 2303/2312 10004MPS 9999 NSC TEMPO 2303/2306 VRB01MPS 3100 BR FEW006

Observacions i pronòstics meteorològics de més de 4000 aeroports (METAR i TAF).

Les estacions disponibles són els punts grocs i vermells al mapa.

Posi el ratolí al punt desitjat per veure el nom de l'estació.

Feu clic per veure les observacions i els pronòstics meteorològics.

Per canviar el mapa: feu clic els botons verds amb una creu de color negre per apropar; al botó verd amb un guió per allunyar la imatge; o en les fletxes verdes per a mapes adjacents.


METAR-TAF: